Tiempo atmosférico en la estación meteorológica de Punta Galea, Bizkaia (90 m.)



Fecha
DESCASC
Temp. máxima en grados centígrados (hora)
DESCASC
Temp. mínima en grados centígrados (hora)
DESCASC
Temp. media en grados centígrados
DESCASC
Racha de viento máxima en m/sg (hora)
DESCASC
Velocidad máxima media en intervalos de 10 minutos(hora)
DESCASC
Precipitaciones diarias en mm
DESCASC
Precipitaciones de 00:00 a 06:00 en mm
DESCASC
Precipitaciones de 06:00 a 12:00 en mm
DESCASC
Precipitaciones de 12:00 a 18:00 en mm
DESCASC
Precipitaciones de 18:00 a 24:00 en mm
DESCASC
17-09-2020 29.8 (17:30) 19 (07:00) 24.4 7.22 (17:50) 4.72 (17:50) 0.2 0 0 0.2 0
16-09-2020 23.4 (16:30) 17.6 (07:30) 20.5 4.17 (16:00) 2.5 (19:30) 0 0 0 0 0
15-09-2020 27.1 (11:50) 18.8 (04:20) 22.9 9.72 (00:10) 5.56 (00:10) 0 0 0 0 0
14-09-2020 33.4 (13:20) 19.7 (00:00) 26.6 10.28 (11:20) 5.83 (23:40) 0 0 0 0 0
13-09-2020 32 (14:20) 16.4 (00:00) 24.2 6.11 (10:30) 3.33 (09:20) 0 0 0 0 0
12-09-2020 24.3 (16:30) 16.3 (00:00) 20.3 6.94 (14:50) 4.17 (14:20) 0 0 0 0 0
11-09-2020 23.2 (15:50) 16.6 (00:00) 19.9 7.78 (13:50) 4.44 (13:50) 0 0 0 0 0
10-09-2020 22.8 (17:10) 15.4 (00:00) 19.1 5.28 (17:40) 2.78 (09:40) 0 0 0 0 0
09-09-2020 22.7 (12:20) 14.1 (00:00) 18.4 6.94 (14:50) 3.33 (07:40) 0 0 0 0 0
08-09-2020 21.9 (14:50) 14.2 (00:00) 18 8.33 (15:10) 5.28 (15:10) 0 0 0 0 0
07-09-2020 20.9 (13:50) 15.4 (08:00) 18.1 7.78 (05:10) 4.72 (15:20) 1.2 1 0.2 0 0
06-09-2020 21.1 (03:50) 17.5 (00:00) 19.3 7.5 (22:10) 4.17 (22:00) 0 0 0 0 0
05-09-2020 23.1 (15:30) 18.8 (00:00) 20.9 8.61 (06:50) 5.56 (06:30) 0 0 0 0 0
04-09-2020 31.2 (13:50) 15.5 (00:00) 23.4 7.22 (16:50) 5.83 (17:00) 0 0 0 0 0
03-09-2020 25.8 (18:30) 12.9 (00:00) 19.3 5.83 (14:40) 3.89 (14:30) 0 0 0 0 0
02-09-2020 22.5 (16:10) 15.9 (00:00) 19.2 6.39 (17:50) 3.89 (17:40) 0.3 0.3 0 0 0
01-09-2020 22.4 (16:10) 14.8 (00:00) 18.6 5.56 (18:10) 2.78 (09:40) 0 0 0 0 0
31-08-2020 21.8 (14:00) 11.5 (00:00) 16.6 6.67 (13:00) 4.17 (15:30) 0.2 0 0.1 0 0.1
30-08-2020 20.2 (13:20) 14.9 (00:00) 17.6 11.67 (00:20) 5.83 (02:30) 6 0.1 4.7 0.1 1.1
29-08-2020 20.2 (15:00) 15.7 (00:00) 18 16.11 (15:30) 7.22 (20:30) 12.8 3 4.4 1.4 4
28-08-2020 21.8 (04:50) 17.3 (00:00) 19.5 13.89 (18:10) 6.67 (14:30) 5.8 2.2 0.2 0.8 2.6
27-08-2020 26 (11:40) 18.6 (00:00) 22.3 8.06 (16:30) 3.89 (15:20) 0 0 0 0 0
26-08-2020 25 (13:30) 20.1 (00:00) 22.6 8.06 (14:00) 5.28 (17:00) 0 0 0 0 0
25-08-2020 24.3 (18:20) 17.3 (00:00) 20.8 6.67 (13:30) 3.61 (12:40) 0 0 0 0 0
24-08-2020 23.5 (18:10) 16 (00:00) 19.8 8.06 (16:20) 4.72 (16:40) 0 0 0 0 0
23-08-2020 23.1 (15:10) 16.1 (00:00) 19.6 5.83 (16:10) 3.61 (16:20) 0 0 0 0 0
22-08-2020 22.3 (16:30) 16.4 (00:00) 19.3 6.39 (13:50) 3.33 (20:50) 0.2 0 0 0 0.2
21-08-2020 22.8 (07:10) 19.5 (00:00) 21.1 6.67 (13:00) 4.17 (03:30) 0.7 0.7 0 0 0

Gráficas

Temp. máximas Temp. mínimas Temp. medias Precipitaciones Rachas de viento máximas Velocidades máximas media en intervalos de 10 minutos

Datos horarios

Fecha y hora oficial Temperatura (ºC) Velocidad del viento (km/h) Dirección del viento Racha (km/h) Dirección de racha Precipitación (mm) Presión (hPa) Tendencia (hPa) Humedad (%)
2020-09-19 23:00:00 20.8 8 Oeste 21 Oeste 0 1004.9 1.3 73
2020-09-19 22:00:00 20.1 10 Oeste 22 Oeste 0 1004.6 1.4 82
2020-09-19 21:00:00 19.6 6 Oeste 15 Oeste 0 1004.2 1.4 80
2020-09-19 20:00:00 20.1 9 Oeste 27 Oeste 0 1003.6 1.2 83
2020-09-19 19:00:00 19.9 8 Oeste 21 Sudoeste 0.6 1003.2 1.1 92
2020-09-19 18:00:00 18.7 8 Oeste 21 Oeste 0.9 1002.8 0.8 92
2020-09-19 17:00:00 19.1 9 Noroeste 19 Noroeste 0 1002.4 0.6 88
2020-09-19 16:00:00 19.1 6 Noroeste 20 Oeste 2.1 1002.1 -- 91
2020-09-19 15:00:00 20.1 8 Sur 21 Sudeste 0 1002 -- 79
2020-09-19 14:00:00 20.1 12 Sur 23 Sur 0 1001.8 -- 75
2020-09-19 13:00:00 20.5 10 Sur 29 Sur 0 1001.7 -- 69
2020-09-19 12:00:00 21.4 9 Sur 23 Sur 0 1001.2 -- 65
2020-09-19 11:00:00 20.6 9 Sur 18 Sur 0 1001.2 -- 68
2020-09-19 10:00:00 20.2 6 Sudoeste 24 Sudoeste 0 1001.1 -- 69
2020-09-19 09:00:00 20.8 10 Sudoeste 24 Sudoeste 0 1000.2 -- 72
2020-09-19 08:00:00 18.2 9 Sudeste 17 Sudeste 0 999.7 -- 81
2020-09-19 07:00:00 18.8 4 Sudeste 22 Sur 0 999.9 -- 77
2020-09-19 06:00:00 18.9 7 Sur 13 Sur 0 1000 -- 80
2020-09-19 05:00:00 19.2 6 Sudeste 13 Sudeste 0 1000.2 -- 80
2020-09-19 04:00:00 18.9 5 Sudeste 16 Sur 0 1000.3 -- 79
2020-09-19 03:00:00 20.2 6 Sur 16 Sur 0 1000.2 -- 77
2020-09-19 02:00:00 19.2 3 Sur 19 Sudeste 0 1000.5 -- 77
2020-09-19 01:00:00 19.6 6 Sur 28 Sudoeste 0 1001 0.6 74
2020-09-19 00:00:00 20.7 5 Sudoeste 22 Sudoeste 0 1001.5 -- 68
2020-09-18 23:00:00 22.6 7 Sur 22 Sudeste 0 1000.6 -- 62
2020-09-18 22:00:00 23 9 Sudeste 19 Sudeste 0 1000.4 -- 60
2020-09-18 21:00:00 22.4 4 Sudeste 15 Sur 0 1000.1 -- 57
2020-09-18 20:00:00 24.2 5 Sur 9 Sudeste 0 1000.4 -- 50
2020-09-18 19:00:00 25.3 5 Norte 17 Norte 0 1000.8 -- 52
2020-09-18 18:00:00 27 4 Este 11 Nordeste 0 1000.4 -- 42
2020-09-18 17:00:00 -- 6 Norte 16 Este 0 -- -- --
2020-09-18 16:00:00 24.5 5 Noroeste 23 Sur 0 1000.9 -- 47
2020-09-18 15:00:00 27.3 11 Sur 26 Sur 0 1000.7 -- 37
2020-09-18 14:00:00 26.3 11 Sur 37 Sur 0 1000.7 -- 44
2020-09-18 13:00:00 23.8 15 Sur 31 Sur 0 1001 -- 50
2020-09-18 12:00:00 22.6 15 Sur 35 Sudoeste 0 1002.1 -- 62
2020-09-18 11:00:00 21.8 10 Sur 20 Sur 0 1001.3 -- 78
2020-09-18 10:00:00 21.2 5 Sudeste 15 Sur 0 1000.4 -- 80
2020-09-18 09:00:00 21.1 9 Sur 20 Sur 0 999.8 -- 75
2020-09-18 08:00:00 20.4 5 Sudeste 24 Sudoeste 0.2 999.8 -- 76
2020-09-18 07:00:00 21.6 10 Sudoeste 26 Sur 0.1 1000 -- 67
2020-09-18 06:00:00 23 13 Sudeste 30 Sudeste 0 998.5 -- 58
2020-09-18 05:00:00 22.2 9 Sur 24 Sur 0 999 -- 63
2020-09-18 04:00:00 23 9 Sudeste 40 Sudoeste 0 999.9 -- 59
2020-09-18 03:00:00 25.3 10 Sur 25 Sudoeste 0 1000 -- 48
2020-09-18 02:00:00 25.6 10 Sur 26 Sur 0 999.6 -- 45
2020-09-18 01:00:00 25.8 9 Sur 21 Sur 0 999.2 -- 45
2020-09-18 00:00:00 26.1 8 Sudeste 21 Sur 0 999.5 -- 46
2020-09-17 23:00:00 25.5 10 Sur 22 Sudeste 0 1000.1 -- 52
2020-09-17 22:00:00 23.1 2 Sudeste 10 Oeste 0 1000.3 -- 73
2020-09-17 21:00:00 23.4 6 Oeste 8 Oeste 0 999.9 -- 72
2020-09-17 20:00:00 24.8 3 Oeste 15 Sudeste 0 1000.1 -- 66
2020-09-17 19:00:00 25.8 5 Oeste 25 Este 0 1000.3 -- 58
2020-09-17 18:00:00 28.5 15 Este 26 Este 0 1000.6 -- 47
2020-09-17 17:00:00 27.9 0 Calma 9 Nordeste 0 1000.8 -- 61
2020-09-17 16:00:00 27.4 6 Nordeste 21 Este 0 1001.5 -- 61
2020-09-17 15:00:00 27.3 10 Este 20 Este 0 1002.1 -- 54
2020-09-17 14:00:00 23.8 2 Nordeste 9 Sur 0 1002.8 -- 84
2020-09-17 13:00:00 22.9 5 Sur 13 Sudeste 0.2 1003.5 -- 88
2020-09-17 12:00:00 21.3 5 Sur 13 Sur 0 1004 -- 90
2020-09-17 11:00:00 20.6 6 Sur 14 Sur 0 1004.2 -- 92
2020-09-17 10:00:00 20 6 Sur 15 Sur 0 1004.2 -- 95
2020-09-17 09:00:00 20.2 9 Sur 16 Sur 0 1004.4 -- 96
2020-09-17 08:00:00 20 6 Sur 10 Sur 0 1004.5 -- 96
2020-09-17 07:00:00 20.3 5 Sur 12 Sudeste 0 1004.5 -- 96
2020-09-17 06:00:00 19.7 6 Sudeste 14 Sudeste 0 1004.9 -- 96
2020-09-17 05:00:00 20.9 7 Sur 12 Sur 0 1005.3 -- 96
2020-09-17 04:00:00 20.4 6 Sur 8 Sur 0 1006.1 -- 95
2020-09-17 03:00:00 21.1 4 Sur 6 Sudeste 0 1006.4 -- 95
2020-09-17 02:00:00 20.8 0 Calma 6 Noroeste 0 1007 -- 95
2020-09-17 01:00:00 20.6 4 Noroeste 7 Noroeste 0 1007.5 -- 95
2020-09-17 00:00:00 20.9 3 Noroeste 7 Noroeste 0 1007.9 0.6 95
2020-09-16 23:00:00 21.1 3 Oeste 8 Oeste 0 1008 -- 95
2020-09-16 22:00:00 20.9 5 Oeste 12 Oeste 0 1008 -- 95
2020-09-16 21:00:00 21 5 Oeste 11 Noroeste 0 1007.3 -- 95
2020-09-16 20:00:00 21.2 7 Noroeste 15 Oeste 0 1007 -- 95
2020-09-16 19:00:00 22.2 9 Noroeste 15 Noroeste 0 1006.9 -- 92
2020-09-16 18:00:00 22.7 8 Noroeste 14 Norte 0 1007.1 -- 91
2020-09-16 17:00:00 22.4 8 Noroeste 15 Norte 0 1007.4 -- 91
2020-09-16 16:00:00 23 8 Noroeste 15 Noroeste 0 1008 -- 89
2020-09-16 15:00:00 22.6 8 Noroeste 13 Norte 0 1008.5 -- 87
2020-09-16 14:00:00 22.5 6 Norte 12 Norte 0 1009 -- 86
2020-09-16 13:00:00 21.8 8 Norte 10 Norte 0 1009.6 -- 84
2020-09-16 12:00:00 22.2 5 Nordeste 9 Sudeste 0 1009.7 -- 80
2020-09-16 11:00:00 21.6 5 Sudeste 13 Sudeste 0 1009.6 -- 83
2020-09-16 10:00:00 19 6 Sur 12 Sur 0 1009.5 -- 95
2020-09-16 09:00:00 18.8 7 Sur 12 Sur 0 1009.4 -- 96
2020-09-16 08:00:00 18.5 9 Sur 12 Sur 0 1009.3 -- 96
2020-09-16 07:00:00 18.5 5 Sur 11 Sur 0 1009.2 -- 96
2020-09-16 06:00:00 19.2 7 Sur 11 Sur 0 1009.3 -- 96
2020-09-16 05:00:00 19.5 6 Sur 9 Sur 0 1009.5 -- 96
2020-09-16 04:00:00 20 5 Sur 8 Sur 0 1010.1 -- 96
2020-09-16 03:00:00 20 5 Sur 8 Sur 0 1010.1 -- 96
2020-09-16 02:00:00 20.7 4 Sur 5 Sudeste 0 1010.4 -- 96
2020-09-16 01:00:00 21.3 4 Sudeste 6 Sur 0 1010.2 -- 96
2020-09-16 00:00:00 20 0 Calma -- -- 0 1010.2 -- 95
2020-09-15 23:00:00 20 0 Calma 5 Oeste 0 1010.5 -- 95
2020-09-15 22:00:00 20.4 0 Calma 6 Oeste 0 1010.3 -- 95
2020-09-15 21:00:00 21 3 Noroeste 7 Oeste 0 1010.1 -- 95
2020-09-15 20:00:00 21.1 5 Oeste 15 Noroeste 0 1010 -- 95
2020-09-15 19:00:00 21.7 11 Noroeste 17 Noroeste 0 1009.6 -- 93
2020-09-15 18:00:00 22.2 10 Noroeste 19 Noroeste 0 1009.7 -- 93
2020-09-15 17:00:00 22.6 9 Noroeste 18 Oeste 0 1009.4 -- 90
2020-09-15 16:00:00 22.7 10 Noroeste 16 Oeste 0 1009.5 -- 87
2020-09-15 15:00:00 22.7 9 Noroeste 17 Noroeste 0 1009.7 -- 90
2020-09-15 14:00:00 22 13 Noroeste 20 Noroeste 0 1009.9 -- 92
2020-09-15 13:00:00 22.2 10 Noroeste 22 Oeste 0 1010 -- 89
2020-09-15 12:00:00 23.4 10 Oeste 23 Oeste 0 1010.3 -- 63
2020-09-15 11:00:00 25.4 6 Sudeste 19 Sur 0 1009.9 -- 58
2020-09-15 10:00:00 22.2 9 Sur 15 Sur 0 1009.5 -- 75
2020-09-15 09:00:00 19.8 8 Sur 17 Sur 0 1009.5 -- 90
2020-09-15 08:00:00 19.4 9 Sur 18 Sudeste 0 1009.5 -- 90
2020-09-15 07:00:00 20.4 10 Sudeste 21 Sur 0 1009.5 -- 89
2020-09-15 06:00:00 20.2 7 Sudeste 19 Sudeste 0 1009.1 -- 89
2020-09-15 05:00:00 21 9 Sur 17 Sur 0 1010.2 -- 93
2020-09-15 04:00:00 20 9 Sudeste 15 Sudeste 0 1010.3 -- 93
2020-09-15 03:00:00 19.2 8 Sur 12 Sur 0 1010.7 -- 92
2020-09-15 02:00:00 20.5 5 Oeste 11 Noroeste 0 1010.5 -- 91
2020-09-15 01:00:00 20.5 7 Noroeste 35 Oeste 0 1010.3 -- 91
2020-09-15 00:00:00 20.3 18 Noroeste 36 Noroeste 0 1010.4 -- 92
2020-09-14 23:00:00 20 7 Oeste 10 Oeste 0 1009.5 -- 81
2020-09-14 22:00:00 20.3 3 Sudeste 5 Sudeste 0 1008.6 -- 78
2020-09-14 21:00:00 21.5 2 Noroeste 9 Oeste 0 1008.1 -- 73
2020-09-14 20:00:00 21.9 2 Sudeste 9 Oeste 0 1008.6 -- 72
2020-09-14 19:00:00 22.3 4 Oeste 12 Oeste 0 1008.5 -- 74
2020-09-14 18:00:00 22.3 4 Noroeste 18 Noroeste 0 1008.4 -- 69
2020-09-14 17:00:00 23 6 Noroeste 17 Noroeste 0 1008.9 -- 69
2020-09-14 16:00:00 22.9 8 Norte 20 Norte 0 1009 -- 69
2020-09-14 15:00:00 22.5 8 Noroeste 22 Norte 0 1008.9 -- 77
2020-09-14 14:00:00 23.1 12 Oeste 29 Sur 0 1008.4 -- 75
2020-09-14 13:00:00 32.7 14 Sur 34 Sur 0 1008.6 -- 28
2020-09-14 12:00:00 29.8 17 Sur 37 Sur 0 1008.7 -- 30
2020-09-14 11:00:00 29.6 15 Sur 33 Sur 0 1008.4 -- 32
2020-09-14 10:00:00 27.9 13 Sur 31 Sur 0 1008.5 -- 34
2020-09-14 09:00:00 25.4 10 Sudeste 29 Sur 0 1008 -- 38
2020-09-14 08:00:00 25.9 13 Sur 29 Sur 0 1007.4 -- 35
2020-09-14 07:00:00 26.1 11 Sur 27 Sudeste 0 1007 -- 34
2020-09-14 06:00:00 26.3 12 Sur 25 Sur 0 1006.7 -- 33
2020-09-14 05:00:00 26.1 13 Sur 27 Sur 0 1007.1 -- 32
2020-09-14 04:00:00 26 14 Sur 25 Sur 0 1007.1 -- 32
2020-09-14 03:00:00 25.9 12 Sur 21 Sur 0 1007.4 -- 34
2020-09-14 02:00:00 25.4 9 Sur 18 Sur 0 1007.4 -- 37
2020-09-14 01:00:00 23.5 8 Sur 15 Sur 0 1007.3 -- 50
2020-09-14 00:00:00 21.7 6 Sur 9 Sudeste 0 1008.1 -- 82
2020-09-13 23:00:00 21.6 4 Sur 8 Sudoeste 0 1008.3 -- 86
2020-09-13 22:00:00 22.8 3 Oeste 14 Oeste 0 1008.3 -- 80
2020-09-13 21:00:00 23.7 9 Oeste 14 Oeste 0 1007.6 -- 71
2020-09-13 20:00:00 25.5 6 Oeste 9 Oeste 0 1007.2 -- 59
2020-09-13 19:00:00 29.8 2 Norte 8 Nordeste 0 1007.3 -- 41
2020-09-13 18:00:00 29.8 5 Nordeste 18 Nordeste 0 1007.4 -- 41
2020-09-13 17:00:00 28.9 7 Norte 15 Nordeste 0 1007.7 -1.9 41
2020-09-13 16:00:00 29.1 4 Nordeste 10 Nordeste 0 1008.4 -- 42
2020-09-13 15:00:00 28.2 4 Norte 17 Sudeste 0 1009.1 -- 40
2020-09-13 14:00:00 31.1 8 Sudeste 17 Sur 0 1009.6 -- 35
2020-09-13 13:00:00 29 9 Sudeste 21 Sudeste 0 1010.1 -- 43
2020-09-13 12:00:00 26.4 9 Sudeste 21 Sur 0 1010.6 -- 53
2020-09-13 11:00:00 23.1 9 Sudeste 22 Sudeste 0 1010.6 -- 66
2020-09-13 10:00:00 19.8 11 Sudeste 21 Sur 0 1010.5 -- 80
2020-09-13 09:00:00 19.1 11 Sur 19 Sur 0 1010.4 -- 89
2020-09-13 08:00:00 17.5 10 Sur 19 Sur 0 1010.3 -- 93
2020-09-13 07:00:00 17.1 10 Sur 16 Sur 0 1010.1 -- 93
2020-09-13 06:00:00 18 9 Sur 15 Sur 0 1010.6 -- 93
2020-09-13 05:00:00 18.4 9 Sur 15 Sur 0 1010.9 -- 93
2020-09-13 04:00:00 16.9 9 Sur 15 Sur 0 1011 -- 93
2020-09-13 03:00:00 18.6 8 Sur 12 Sur 0 1011.6 -- 92
2020-09-13 02:00:00 18.9 6 Sur 10 Sur 0 1012.1 -- 90
2020-09-13 01:00:00 19 5 Sudeste 10 Sur 0 1012.4 -- 87
2020-09-13 00:00:00 19.3 4 Sur 9 Sudeste 0 1012.2 -- 84
2020-09-12 23:00:00 19.8 4 Sudeste 13 Sudeste 0 1012.1 -- 80
2020-09-12 22:00:00 20.3 6 Sudeste 17 Sudeste 0 1011.6 -- 75
2020-09-12 21:00:00 20.1 4 Sudeste 8 Sudeste 0 1010.9 -- 76
2020-09-12 20:00:00 22.2 0 Calma 12 Nordeste 0 1010.8 -- 75
2020-09-12 19:00:00 22.6 8 Nordeste 18 Nordeste 0 1010.5 -- 75
2020-09-12 18:00:00 23.8 8 Nordeste 21 Este 0 1010.5 -- 68
2020-09-12 17:00:00 24 10 Nordeste 17 Nordeste 0 1010.6 -- 65
2020-09-12 16:00:00 23.3 10 Nordeste 24 Nordeste 0 1010.9 -- 68
2020-09-12 15:00:00 22.7 14 Nordeste 25 Nordeste 0 1011.1 -- 78
2020-09-12 14:00:00 22.6 13 Nordeste 22 Nordeste 0 1011 -- 83
2020-09-12 13:00:00 22 6 Norte 13 Nordeste 0 1011.4 -- 87
2020-09-12 12:00:00 21.6 6 Norte 10 Norte 0 1011.4 -- 82
2020-09-12 11:00:00 20.6 5 Sur 13 Sudeste 0 1010.8 -- 86
2020-09-12 10:00:00 18.4 7 Sudeste 13 Sur 0 1010.4 -- 94
2020-09-12 09:00:00 17.6 8 Sur 14 Sur 0 1010.2 -- 96
2020-09-12 08:00:00 17 8 Sur 12 Sur 0 1009.4 -- 95
2020-09-12 07:00:00 16.8 8 Sur 14 Sur 0 1009 -- 96
2020-09-12 06:00:00 17.6 7 Sur 11 Sur 0 1008.6 -- 95
2020-09-12 05:00:00 17.6 6 Sur 10 Sur 0 1008.8 -- 95
2020-09-12 04:00:00 18.9 8 Sur 10 Sudeste 0 1008.5 -- 95
2020-09-12 03:00:00 19 5 Sudeste 9 Sur 0 1008.4 -- 95
2020-09-12 02:00:00 18.8 5 Sur 11 Sudeste 0 1008.2 -- 95
2020-09-12 01:00:00 20.1 5 Sudeste 10 Sudeste 0 1008.4 -- 94
2020-09-12 00:00:00 19.3 3 Sudeste 9 Sur 0 1008.2 -- 92
2020-09-11 23:00:00 19.8 4 Sur 9 Sudeste 0 1008.1 -- 90
2020-09-11 22:00:00 20 2 Este 7 Este 0 1007.9 -- 85
2020-09-11 21:00:00 19.6 3 Este 17 Este 0 1007.2 -- 84
2020-09-11 20:00:00 21 10 Este 17 Nordeste 0 1006.7 -- 82
2020-09-11 19:00:00 22 9 Nordeste 18 Nordeste 0 1006.8 -- 83
2020-09-11 18:00:00 22.5 12 Nordeste 22 Nordeste 0 1007 -- 84
2020-09-11 17:00:00 22.3 13 Nordeste 23 Nordeste 0 1007.3 -- 84
2020-09-11 16:00:00 22.5 14 Nordeste 25 Nordeste 0 1007.2 -- 84
2020-09-11 15:00:00 22.5 12 Nordeste 23 Nordeste 0 1007.7 -- 84
2020-09-11 14:00:00 22.6 14 Nordeste 28 Nordeste 0 1007.6 -- 85
2020-09-11 13:00:00 22.4 12 Nordeste 20 Nordeste 0 1008.1 -- 85
2020-09-11 12:00:00 22 5 Norte 11 Norte 0 1008.1 -- 81
2020-09-11 11:00:00 20.8 8 Sudeste 14 Sudeste 0 1008.2 -- 84
2020-09-11 10:00:00 18.5 8 Sur 14 Sur 0 1008.1 -- 92
2020-09-11 09:00:00 18.6 8 Sur 13 Sur 0 1008.3 -- 96
2020-09-11 08:00:00 17.1 9 Sur 15 Sur 0 1007.8 -- 96
2020-09-11 07:00:00 17.8 6 Sur 10 Sudeste 0 1007.8 -- 96
2020-09-11 06:00:00 17.9 7 Sur 11 Sur 0 1008 -- 96
2020-09-11 05:00:00 19 7 Sur 12 Sur 0 1008.4 -- 96
2020-09-11 04:00:00 18.8 6 Sur 10 Sur 0 1009 -- 96
2020-09-11 03:00:00 18.7 6 Sur 10 Sur 0 1009.1 -- 96
2020-09-11 02:00:00 19.2 6 Sur 9 Sur 0 1009.7 -- 95
2020-09-11 01:00:00 19.4 5 Sur 8 Sur 0 1010.1 -- 95
2020-09-11 00:00:00 20 2 Oeste 5 Oeste 0 1010.1 -- 95
2020-09-10 23:00:00 20.4 0 Calma 5 Noroeste 0 1009.9 -- 95
2020-09-10 22:00:00 20.3 3 Oeste 8 Noroeste 0 1010.1 -- 94
2020-09-10 21:00:00 20.1 5 Noroeste 8 Noroeste 0 1009.9 -- 93
2020-09-10 20:00:00 20.6 4 Noroeste 12 Noroeste 0 1010 -- 91
2020-09-10 19:00:00 21.2 6 Noroeste 12 Noroeste 0 1010.1 -- 89
2020-09-10 18:00:00 22.1 6 Norte 19 Noroeste 0 1010.4 -- 84
2020-09-10 17:00:00 22.7 8 Norte 15 Noroeste 0 1010.9 -- 86
2020-09-10 16:00:00 22.6 7 Norte 14 Norte 0 1011.2 -- 85
2020-09-10 15:00:00 22.1 6 Norte 12 Norte 0 1011.6 -- 86
2020-09-10 14:00:00 21.7 7 Noroeste 16 Norte 0 1012.2 -- 89
2020-09-10 13:00:00 20.9 5 Norte 10 Norte 0 1012.6 -- 80
2020-09-10 12:00:00 20.3 7 Noroeste 13 Noroeste 0 1012.8 -- 82
2020-09-10 11:00:00 19.9 3 Oeste 14 Sur 0 1012.8 -- 78
2020-09-10 10:00:00 19.4 8 Sur 17 Sur 0 1012.4 -- 85
2020-09-10 09:00:00 17.1 9 Sur 15 Sur 0 1012.1 -- 93
2020-09-10 08:00:00 17.3 9 Sur 14 Sur 0 1011.7 -- 94
2020-09-10 07:00:00 17.3 9 Sur 14 Sur 0 1011.8 -- 95
2020-09-10 06:00:00 16.9 9 Sur 14 Sur 0 1012 -- 94
2020-09-10 05:00:00 17.3 10 Sur 15 Sur 0 1012.5 -- 94
2020-09-10 04:00:00 17.8 6 Sur 12 Sur 0 1012.6 -- 95
2020-09-10 03:00:00 17.8 8 Sur 12 Sur 0 1012.9 -- 93
2020-09-10 02:00:00 17.8 6 Sur 9 Sur 0 1013.5 -- 93
2020-09-10 01:00:00 20.8 2 Oeste 9 Oeste 0 1013.8 -- 95
2020-09-10 00:00:00 20.6 5 Oeste 8 Oeste 0 1014.1 -- 95
2020-09-09 23:00:00 20.2 3 Sudoeste 5 Noroeste 0 1014 -- 93
2020-09-09 22:00:00 20.6 4 Noroeste 8 Noroeste 0 1013.6 -- 93
2020-09-09 21:00:00 19.6 0 Calma 8 Oeste 0 1012.6 -- 93
2020-09-09 20:00:00 21.2 4 Oeste 13 Oeste 0 1012.4 -- 92
2020-09-09 19:00:00 21.3 10 Noroeste 16 Noroeste 0 1012.7 -- 93
2020-09-09 18:00:00 21.6 7 Noroeste 17 Noroeste 0 1012.6 -- 89
2020-09-09 17:00:00 22.4 7 Noroeste 17 Noroeste 0 1012.7 -- 87
2020-09-09 16:00:00 21.3 10 Noroeste 18 Noroeste 0 1012.7 -- 87
2020-09-09 15:00:00 21.9 8 Norte 25 Noroeste 0 1013 -- 80
2020-09-09 14:00:00 21.3 9 Norte 17 Norte 0 1013.2 -- 77
2020-09-09 13:00:00 21.5 8 Norte 13 Norte 0 1013.2 -- 65
2020-09-09 12:00:00 22.2 3 Sudeste 11 Sur 0 1013.1 -- 57
2020-09-09 11:00:00 20 7 Sur 17 Sudeste 0 1013.2 -- 66
2020-09-09 10:00:00 17.9 9 Sur 16 Sur 0 1013.1 -- 78
2020-09-09 09:00:00 16.4 10 Sur 19 Sur 0 1012.9 -- 88
2020-09-09 08:00:00 16.4 11 Sur 18 Sur 0 1012.3 -- 92
2020-09-09 07:00:00 14.9 10 Sur 16 Sur 0 1012.1 -- 92
2020-09-09 06:00:00 15.9 10 Sur 17 Sur 0 1012.3 -- 91
2020-09-09 05:00:00 16.7 9 Sur 16 Sur 0 1012.2 -- 91
2020-09-09 04:00:00 16.2 9 Sur 14 Sur 0 1012.4 -- 91
2020-09-09 03:00:00 15.6 9 Sur 13 Sur 0 1012.8 -- 89
2020-09-09 02:00:00 17.5 9 Sur 12 Sur 0 1013.4 -- 85
2020-09-09 01:00:00 16.9 8 Sur 10 Sur 0 1013.9 -- 85
2020-09-09 00:00:00 17.6 8 Sur 10 Sur 0 1014.2 -- 80
2020-09-08 23:00:00 18.1 3 Sur 7 Sur 0 1014.2 -- 76
2020-09-08 22:00:00 18.9 2 Sur 7 Nordeste 0 1014.4 -- 72
2020-09-08 21:00:00 18.1 4 Sudeste 13 Este 0 1014.1 -- 63
2020-09-08 20:00:00 19.9 8 Este 22 Este 0 1013.6 -- 55
2020-09-08 19:00:00 21.1 11 Nordeste 22 Nordeste 0 1013.6 -- 60
2020-09-08 18:00:00 21.4 13 Nordeste 24 Nordeste 0 1013.6 -- 61
2020-09-08 17:00:00 20.8 16 Nordeste 27 Este 0 1014.2 -- 65
2020-09-08 16:00:00 21.4 16 Nordeste 30 Nordeste 0 1014.7 -- 69
2020-09-08 15:00:00 21.5 16 Nordeste 29 Nordeste 0 1015.3 -- 67
2020-09-08 14:00:00 21 15 Nordeste 25 Nordeste 0 1015.7 -- 71
2020-09-08 13:00:00 20.7 10 Nordeste 17 Norte 0 1016.5 -- 72
2020-09-08 12:00:00 19.4 5 Norte 9 Noroeste 0 1016.9 -- 73
2020-09-08 11:00:00 19.4 4 Sudeste 9 Sur 0 1017 -- 71
2020-09-08 10:00:00 17.6 7 Sur 14 Sur 0 1016.7 -- 84
2020-09-08 09:00:00 16.3 9 Sur 14 Sur 0 1016.5 -- 92
2020-09-08 08:00:00 14.5 8 Sur 13 Sur 0 1016.1 -- 94
2020-09-08 07:00:00 15.9 8 Sur 13 Sur 0 1016 -- 93
2020-09-08 06:00:00 16.1 8 Sur 15 Sudeste 0 1015.5 -- 92
2020-09-08 05:00:00 15.4 9 Sur 14 Sudeste 0 1016 -- 91
2020-09-08 04:00:00 15.7 7 Sur 12 Sur 0 1016 -- 89
2020-09-08 03:00:00 15.5 8 Sur 12 Sur 0 1016.2 -- 89
2020-09-08 02:00:00 16.1 8 Sur 12 Sudeste 0 1016.4 -- 88
2020-09-08 01:00:00 16.4 6 Sur 12 Este 0 1017.2 -- 85
2020-09-08 00:00:00 17.8 6 Este 13 Este 0 1017.3 -- 78
2020-09-07 23:00:00 18.6 7 Este 15 Este 0 1017.5 -- 76
2020-09-07 22:00:00 18.1 6 Este 16 Nordeste 0 1017.1 -- 74
2020-09-07 21:00:00 18.8 9 Nordeste 20 Nordeste 0 1016.5 -- 68
2020-09-07 20:00:00 18.7 9 Nordeste 19 Nordeste 0 1016.5 0.9 60
2020-09-07 19:00:00 19.5 8 Nordeste 17 Nordeste 0 1016.3 -- 58
2020-09-07 18:00:00 19.9 13 Nordeste 24 Nordeste 0 1016.3 -- 59
2020-09-07 17:00:00 20.1 13 Nordeste 25 Nordeste 0 1015.6 -- 56
2020-09-07 16:00:00 20.3 16 Nordeste 27 Nordeste 0 1015.8 -- 56
2020-09-07 15:00:00 20.4 15 Nordeste 27 Nordeste 0 1016.1 -- 53
2020-09-07 14:00:00 20.7 14 Nordeste 27 Nordeste 0 1016 -- 51
2020-09-07 13:00:00 18.8 6 Norte 18 Este 0 1015.9 -- 72
2020-09-07 12:00:00 18.2 5 Sudeste 10 Sur 0 1016.1 -- 80
2020-09-07 11:00:00 19.8 3 Sudeste 6 Este 0 1015.7 -- 87
2020-09-07 10:00:00 17.5 4 Sur 15 Nordeste 0.2 1014.9 -- 92
2020-09-07 09:00:00 17.8 8 Nordeste 16 Nordeste 0 1014.3 -- 84
2020-09-07 08:00:00 17 5 Sudeste 9 Sudeste 0 1014.1 -- 94
2020-09-07 07:00:00 16.8 0 Calma 13 Sur 0 1013.7 -- 93
2020-09-07 06:00:00 17.2 6 Sudeste 28 Nordeste 1 1013.5 -- 93
2020-09-07 05:00:00 18.2 12 Nordeste 25 Nordeste 0 1013.1 -- 80
2020-09-07 04:00:00 17.5 5 Este 20 Nordeste 0 1013.7 -- 75
2020-09-07 03:00:00 18.7 8 Nordeste 20 Nordeste 0 1013.9 -- 74
2020-09-07 02:00:00 19.2 10 Nordeste 21 Nordeste 0 1014 -- 74
2020-09-07 01:00:00 18.8 13 Nordeste 24 Nordeste 0 1014.2 0.2 74
2020-09-07 00:00:00 18.9 12 Nordeste 25 Nordeste 0 1014.3 -- 76
2020-09-06 23:00:00 18.4 13 Nordeste 27 Nordeste 0 1014.2 -- 75
2020-09-06 22:00:00 19.3 15 Nordeste 26 Nordeste 0 1014 -- 79
2020-09-06 21:00:00 18.5 12 Nordeste 21 Norte 0 1013.1 -- 74
2020-09-06 20:00:00 19.3 13 Nordeste 26 Nordeste 0 1013.2 -- 69
2020-09-06 19:00:00 20.1 11 Nordeste 23 Nordeste 0 1013.3 -- 70
2020-09-06 18:00:00 19.3 0 Calma 24 Noroeste 0 1013 -- 81
2020-09-06 17:00:00 18.7 13 Noroeste 24 Noroeste 0 1013 -- 74
2020-09-06 16:00:00 19.8 15 Noroeste 24 Noroeste 0 1013.2 -- 70
2020-09-06 15:00:00 19.9 10 Noroeste 22 Oeste 0 1013.3 -- 69
2020-09-06 14:00:00 19 12 Noroeste 21 Noroeste 0 1013.6 -- 72
2020-09-06 13:00:00 19.3 10 Noroeste 18 Noroeste 0 1013.9 -- 68
2020-09-06 12:00:00 19.1 10 Noroeste 16 Norte 0 1014.2 -- 66
2020-09-06 11:00:00 19 9 Noroeste 18 Oeste 0 1013.9 -- 77
2020-09-06 10:00:00 19.2 10 Noroeste 15 Oeste 0 1013.5 -- 77
2020-09-06 09:00:00 18.4 7 Noroeste 17 Noroeste 0 1013.5 -- 76
2020-09-06 08:00:00 18.8 6 Noroeste 15 Noroeste 0 1013.4 -- 73
2020-09-06 07:00:00 19.3 3 Norte 17 Nordeste 0 1013 -- 75
2020-09-06 06:00:00 18.8 7 Nordeste 17 Nordeste 0 1013.6 -- 77
2020-09-06 05:00:00 19.1 9 Nordeste 21 Nordeste 0 1013.7 -- 77
2020-09-06 04:00:00 19.4 13 Nordeste 23 Nordeste 0 1014 -- 78
2020-09-06 03:00:00 19.2 13 Nordeste 25 Nordeste 0 1014.3 -- 80
2020-09-06 02:00:00 19.9 11 Nordeste 26 Nordeste 0 1014.3 -- 83
2020-09-06 01:00:00 20.4 12 Nordeste 24 Este 0 1014.5 -- 85
2020-09-06 00:00:00 19.4 9 Este 21 Nordeste 0 1014.6 -- 88
2020-09-05 23:00:00 19.6 8 Este 16 Este 0 1014.7 -- 84
2020-09-05 22:00:00 20.6 8 Este 19 Este 0 1014.6 -- 83
2020-09-05 21:00:00 20 9 Nordeste 23 Nordeste 0 1014.2 -- 82
2020-09-05 20:00:00 19.9 13 Nordeste 23 Nordeste 0 1013.9 -- 83
2020-09-05 19:00:00 19.9 12 Nordeste 22 Nordeste 0 1014 -- 85
2020-09-05 18:00:00 19.8 13 Nordeste 24 Nordeste 0 1014 -- 84
2020-09-05 17:00:00 20.6 15 Nordeste 26 Nordeste 0 1014.1 -- 84
2020-09-05 16:00:00 21.8 12 Nordeste 20 Nordeste 0 1014.9 -- 76
2020-09-05 15:00:00 22.4 8 Norte 19 Nordeste 0 1015.3 -- 74
2020-09-05 14:00:00 22.1 9 Norte 17 Norte 0 1015.3 -- 75
2020-09-05 13:00:00 21.8 9 Norte 18 Norte 0 1015.6 -- 76
2020-09-05 12:00:00 22.3 7 Norte 14 Nordeste 0 1015.3 -- 78
2020-09-05 11:00:00 21.1 7 Noroeste 16 Noroeste 0 1014.9 -- 83
2020-09-05 10:00:00 20.6 6 Noroeste 22 Norte 0 1014.5 -- 87
2020-09-05 09:00:00 20.9 8 Noroeste 19 Norte 0 1014.3 -- 91
2020-09-05 08:00:00 19.9 9 Noroeste 23 Noroeste 0 1013.9 -- 92
2020-09-05 07:00:00 21.4 11 Noroeste 31 Oeste 0 1013.2 -- 93
2020-09-05 06:00:00 21.6 17 Noroeste 29 Noroeste 0 1012.8 -- 91
2020-09-05 05:00:00 21.4 17 Noroeste 29 Noroeste 0 1012.7 -- 91
2020-09-05 04:00:00 21.3 13 Noroeste 26 Noroeste 0 1012.7 -- 90
2020-09-05 03:00:00 21.7 13 Noroeste 26 Noroeste 0 1012.5 -- 91
2020-09-05 02:00:00 21.9 16 Noroeste 28 Noroeste 0 1012.3 -- 95
2020-09-05 01:00:00 21.7 13 Noroeste 26 Noroeste 0 1012.1 -- 96
2020-09-05 00:00:00 21.2 10 Noroeste 19 Noroeste 0 1011.8 -- 96
2020-09-04 23:00:00 22.8 10 Noroeste 15 Noroeste 0 1011.4 -- 96
2020-09-04 22:00:00 20.7 6 Noroeste 9 Noroeste 0 1010.7 -- 95
2020-09-04 21:00:00 21.7 2 Noroeste 12 Noroeste 0 1009.9 -- 89
2020-09-04 20:00:00 22.3 8 Noroeste 19 Noroeste 0 1009.9 -- 89
2020-09-04 19:00:00 22.7 12 Noroeste 23 Noroeste 0 1009.5 -- 91
2020-09-04 18:00:00 23.6 10 Noroeste 26 Noroeste 0 1009.3 -- 88
2020-09-04 17:00:00 23.5 21 Noroeste 26 Oeste 0 1009.3 -- 84
2020-09-04 16:00:00 24.9 10 Oeste 18 Sudoeste 0 1009.3 -- 77
2020-09-04 15:00:00 23.4 12 Oeste 22 Oeste 0 1010 -- 85
2020-09-04 14:00:00 24 13 Oeste 19 Sur 0 1010.4 -- 65
2020-09-04 13:00:00 29.5 10 Sur 21 Sur 0 1011 -- 32
2020-09-04 12:00:00 28 11 Sur 26 Sur 0 1011.4 -- 35
2020-09-04 11:00:00 25 8 Sur 15 Sur 0 1011.5 -- 46
2020-09-04 10:00:00 21.6 9 Sur 19 Sudeste 0 1011.1 -- 57
2020-09-04 09:00:00 19.3 11 Sur 21 Sur 0 1010.8 -- 80
2020-09-04 08:00:00 16.6 9 Sur 15 Sur 0 1010.8 -- 94
2020-09-04 07:00:00 17.4 11 Sur 17 Sur 0 1010.7 -- 94
2020-09-04 06:00:00 17.9 12 Sur 17 Sur 0 1010.7 -- 95
2020-09-04 05:00:00 17.1 8 Sur 13 Sur 0 1011.3 -- 95
2020-09-04 04:00:00 17 10 Sur 15 Sur 0 1011.6 -- 94
2020-09-04 03:00:00 17.9 8 Sur 12 Sur 0 1012 -- 95
2020-09-04 02:00:00 18.6 5 Sur 9 Sur 0 1012.6 -- 95
2020-09-04 01:00:00 18.2 7 Sur 9 Sudeste 0 1012.5 -- 95
2020-09-04 00:00:00 19.1 6 Sudeste 9 Sudeste 0 1012.5 -- 93
2020-09-03 23:00:00 20.5 3 Oeste 15 Oeste 0 1012.3 -- 91
2020-09-03 22:00:00 20.7 9 Oeste 17 Oeste 0 1011.8 -- 91
2020-09-03 21:00:00 20.6 12 Oeste 20 Oeste 0 1011.3 -- 89
2020-09-03 20:00:00 22.3 7 Oeste 15 Oeste 0 1011.1 -- 74
2020-09-03 19:00:00 24.2 7 Oeste 11 Oeste 0 1011 -- 60
2020-09-03 18:00:00 24.5 3 Noroeste 13 Nordeste 0 1010.7 -- 65
2020-09-03 17:00:00 24.9 7 Nordeste 17 Nordeste 0 1011 -- 63
2020-09-03 16:00:00 23.7 12 Nordeste 19 Nordeste 0 1011 -- 63
2020-09-03 15:00:00 24 12 Nordeste 21 Nordeste 0 1011.6 -- 59
2020-09-03 14:00:00 23.9 8 Nordeste 14 Nordeste 0 1011.5 -- 59
2020-09-03 13:00:00 23.4 7 Nordeste 17 Este 0 1011.7 -- 56
2020-09-03 12:00:00 22.5 7 Sudeste 18 Sudeste 0 1011.8 -- 54
2020-09-03 11:00:00 19.5 8 Sudeste 20 Sudeste 0 1011.8 -- 62
2020-09-03 10:00:00 17.4 11 Sudeste 20 Sur 0 1011.7 -- 74
2020-09-03 09:00:00 16.9 9 Sudeste 17 Sudeste 0 1011.5 -- 85
2020-09-03 08:00:00 14.8 8 Sur 14 Sur 0 1011.4 -- 92
2020-09-03 07:00:00 14.3 9 Sur 15 Sur 0 1011.2 -- 91
2020-09-03 06:00:00 14.5 8 Sur 14 Sur 0 1011.2 -- 90
2020-09-03 05:00:00 14.8 8 Sur 13 Sur 0 1011.4 -- 89
2020-09-03 04:00:00 15.3 8 Sur 13 Sur 0 1011.4 -- 87
2020-09-03 03:00:00 15.1 8 Sur 15 Sur 0 1011.5 -- 84
2020-09-03 02:00:00 16.4 7 Sur 11 Sudeste 0 1011.8 -- 79
2020-09-03 01:00:00 16.1 6 Sur 10 Sur 0 1012 -- 76
2020-09-03 00:00:00 17.2 5 Sur 7 Sudeste 0 1011.8 -- 71
2020-09-02 23:00:00 17.5 3 Sur 11 Sur 0 1011.8 -- 67
2020-09-02 22:00:00 17.8 6 Sur 11 Este 0 1011.6 -- 62
2020-09-02 21:00:00 18.3 8 Este 15 Este 0 1010.9 0.7 54
2020-09-02 20:00:00 20.4 9 Este 19 Nordeste 0 1010.7 -- 50
2020-09-02 19:00:00 21.4 12 Este 23 Este 0 1010.3 -- 47
2020-09-02 18:00:00 21.9 14 Nordeste 23 Nordeste 0 1010.2 -- 51
2020-09-02 17:00:00 22.1 13 Nordeste 22 Nordeste 0 1010.4 -- 57
2020-09-02 16:00:00 22.2 12 Nordeste 22 Nordeste 0 1010.3 -- 59
2020-09-02 15:00:00 21.9 11 Norte 18 Nordeste 0 1010.5 -- 72
2020-09-02 14:00:00 21.4 8 Norte 14 Norte 0 1010.4 -- 74
2020-09-02 13:00:00 21.3 6 Norte 13 Norte 0 1010.4 -- 76
2020-09-02 12:00:00 20.1 5 Norte 9 Noroeste 0 1010.6 -- 82
2020-09-02 11:00:00 19.6 3 Oeste 9 Noroeste 0 1010.3 -- 80
2020-09-02 10:00:00 18.7 6 Sudeste 14 Sudeste 0 1010 -- 91
2020-09-02 09:00:00 17.7 8 Sudeste 13 Sur 0 1009.8 -- 96
2020-09-02 08:00:00 16.4 8 Sur 12 Sur 0 1009.3 -- 96
2020-09-02 07:00:00 17.6 7 Sur 11 Sur 0 1009 -- 96
2020-09-02 06:00:00 17.3 8 Sur 11 Sudeste 0 1008.7 -- 96
2020-09-02 05:00:00 17.2 7 Sur 9 Sur 0 1008.4 -- 95
2020-09-02 04:00:00 18.8 3 Sudoeste 9 Oeste 0 1008.5 -- 93
2020-09-02 03:00:00 19.3 5 Oeste 11 Oeste 0.3 1008.6 -- 93
2020-09-02 02:00:00 19.8 2 Noroeste 16 Noroeste 0 1008.8 -- 91
2020-09-02 01:00:00 20.3 10 Noroeste 18 Noroeste 0 1008.5 -- 87
2020-09-02 00:00:00 20.9 7 Noroeste 12 Noroeste 0 1008.5 -- 86
2020-09-01 23:00:00 20 3 Norte 11 Norte 0 1008.6 -- 83
2020-09-01 22:00:00 20.7 2 Norte 10 Noroeste 0 1008 -- 80
2020-09-01 21:00:00 19.6 5 Noroeste 12 Noroeste 0 1007.7 -- 79
2020-09-01 20:00:00 20.8 6 Noroeste 13 Norte 0 1007.3 -- 68
2020-09-01 19:00:00 21.4 6 Norte 20 Norte 0 1007.1 -- 69
2020-09-01 18:00:00 21.8 6 Norte 16 Noroeste 0 1006.7 -- 72
2020-09-01 17:00:00 21.7 9 Noroeste 19 Norte 0 1006.7 -- 77
2020-09-01 16:00:00 22.1 8 Norte 18 Norte 0 1006.6 -- 75
2020-09-01 15:00:00 21.6 8 Norte 15 Norte 0 1007 -- 77
2020-09-01 14:00:00 21.2 7 Norte 14 Norte 0 1006.9 -- 79
2020-09-01 13:00:00 20.5 8 Norte 13 Norte 0 1007.2 -- 72
2020-09-01 12:00:00 20.5 7 Norte 10 Noroeste 0 1007.2 -- 64
2020-09-01 11:00:00 19.8 3 Sudeste 10 Sudeste 0 1007.1 -- 65
2020-09-01 10:00:00 18.1 8 Sudeste 15 Sur 0 1006.8 -- 76
2020-09-01 09:00:00 16.4 9 Sur 14 Sudeste 0 1006.3 -- 87
2020-09-01 08:00:00 15.6 9 Sur 14 Sur 0 1006.1 -- 86
2020-09-01 07:00:00 15.8 9 Sur 14 Sur 0 1005.9 -- 86
2020-09-01 06:00:00 16 9 Sur 14 Sur 0 1006.2 -- 86
2020-09-01 05:00:00 16.7 9 Sur 13 Sur 0 1006.1 -- 86
2020-09-01 04:00:00 16.7 8 Sur 13 Sudeste 0 1006.5 -- 88
2020-09-01 03:00:00 17.7 8 Sur 12 Sur 0 1007.1 -- 89
2020-09-01 02:00:00 17.6 7 Sur 13 Sur 0 1007.4 -- 87
2020-09-01 01:00:00 17.2 9 Sur 13 Sur 0 1007.4 -- 85
2020-09-01 00:00:00 17.7 9 Sur 12 Sur 0 1007.3 -- 82
2020-08-31 23:00:00 17.7 7 Sur 9 Sur 0 1007.8 -- 80
2020-08-31 22:00:00 18.3 6 Sur 9 Sur 0 1008.3 -- 75
2020-08-31 21:00:00 18.4 4 Sur 10 Este 0.1 1007.7 -- 70
2020-08-31 20:00:00 19.2 3 Sudeste 13 Este 0 1007.9 -- 65
2020-08-31 19:00:00 21.2 5 Nordeste 14 Nordeste 0 1008.1 -- 62
2020-08-31 18:00:00 21.4 8 Nordeste 20 Nordeste 0 1008.4 -- 63
2020-08-31 17:00:00 21.3 11 Nordeste 24 Nordeste 0 1008.6 -- 63
2020-08-31 16:00:00 21.5 14 Nordeste 23 Nordeste 0 1009.1 -- 62
2020-08-31 15:00:00 21.4 13 Nordeste 24 Nordeste 0 1009.7 -- 62
2020-08-31 14:00:00 21.6 4 Sudeste 18 Sudeste 0 1010.4 -- 49
2020-08-31 13:00:00 20.4 12 Sudeste 24 Sudeste 0 1010.3 -- 55
2020-08-31 12:00:00 19.3 13 Sudeste 24 Sudeste 0 1010.7 -- 64
2020-08-31 11:00:00 18.1 8 Sudeste 18 Sudeste 0 1010.9 -- 80
2020-08-31 10:00:00 15.9 8 Sur 17 Sur 0 1011.2 -- 91
2020-08-31 09:00:00 14.4 8 Sur 15 Sur 0 1011 -- 96
2020-08-31 08:00:00 14 8 Sur 17 Sur 0.1 1010.9 -- 96
2020-08-31 07:00:00 12.1 11 Sur 15 Sur 0 1010.7 -- 96
2020-08-31 06:00:00 14.1 9 Sur 16 Sur 0 1011 -- 96
2020-08-31 05:00:00 15.2 9 Sur 14 Sur 0 1011.4 -- 96
2020-08-31 04:00:00 14.6 9 Sur -- -- -- 1011.6 -- 96
2020-08-31 03:00:00 15.2 9 Sur 13 Sudeste 0 1011.8 -- 96
2020-08-31 02:00:00 15.6 8 Sur 11 Sur 0 1012.3 -- 95
2020-08-31 01:00:00 15.9 7 Sudeste 10 Sudeste 0 1012.2 -- 94
2020-08-31 00:00:00 16.6 6 Sur 13 Noroeste 0 1012.1 -- 92
2020-08-30 23:00:00 18.6 2 Sudoeste 19 Noroeste 0 1011.8 -- 86
2020-08-30 22:00:00 17 8 Oeste 18 Noroeste 1.1 1011.2 -- 88
2020-08-30 21:00:00 17.5 11 Noroeste 19 Noroeste 0 1010.6 -- 73
2020-08-30 20:00:00 17.5 8 Noroeste 20 Noroeste 0 1010.3 -- 62
2020-08-30 19:00:00 18.2 13 Noroeste 24 Noroeste 0 1010.2 -- 65
2020-08-30 18:00:00 18.4 13 Noroeste 30 Noroeste 0 1010 -- 67
2020-08-30 17:00:00 18.5 13 Noroeste 24 Noroeste 0.1 1009.8 -- 71
2020-08-30 16:00:00 18.9 10 Noroeste 18 Oeste 0 1009.5 -- 71
2020-08-30 15:00:00 18.6 3 Norte 18 Nordeste 0 1009.5 -- 81
2020-08-30 14:00:00 -- 9 Norte 32 Noroeste 0 -- -- --
2020-08-30 13:00:00 18.4 10 Noroeste 19 Oeste 0 1008.8 -- 76
2020-08-30 12:00:00 18.2 9 Noroeste 26 Noroeste 0 1008.4 -- 86
2020-08-30 11:00:00 16.6 14 Oeste 26 Oeste 0 1008.1 -- 88
2020-08-30 10:00:00 16.3 9 Nordeste 39 Norte 0 1007.1 -- 79
2020-08-30 09:00:00 16.3 14 Noroeste 35 Noroeste 0 1006.6 -- 83
2020-08-30 08:00:00 15.5 11 Oeste 37 Oeste 4.6 1005.9 -- 93
2020-08-30 07:00:00 17 15 Oeste 37 Oeste 0.1 1005.2 -- 81
2020-08-30 06:00:00 17.5 18 Noroeste 35 Noroeste 0 1005.1 -- 74
2020-08-30 05:00:00 18.4 19 Noroeste 65 Noroeste 0 1005 -- 61
2020-08-30 04:00:00 18.3 19 Noroeste 90 Noroeste 0 1004.9 -- 60
2020-08-30 03:00:00 19.5 17 Noroeste 41 Noroeste 0 1004.8 -- 61
2020-08-30 02:00:00 18.8 18 Noroeste 39 Noroeste 0.1 1004.9 -- 61
2020-08-30 01:00:00 17.6 18 Noroeste 42 Noroeste 0 1004.9 -- 63
2020-08-30 00:00:00 18.9 18 Noroeste 53 Noroeste 0 1004.8 -- 63
2020-08-29 23:00:00 18.4 17 Noroeste 46 Norte 0 1004.3 -- 65
2020-08-29 22:00:00 18.4 19 Noroeste 45 Noroeste 0 1003.6 -- 65
2020-08-29 21:00:00 18 24 Noroeste 49 Noroeste 0.1 1002.8 -- 66
2020-08-29 20:00:00 18.9 23 Noroeste 44 Noroeste 2.7 1002.4 -- 86
2020-08-29 19:00:00 17.5 20 Noroeste 51 Noroeste 1.2 1002.3 -- 92
2020-08-29 18:00:00 18.6 12 Noroeste 38 Noroeste 0.4 1001 -- 92
2020-08-29 17:00:00 18.1 15 Noroeste 35 Noroeste 0.1 1000.8 -- 81
2020-08-29 16:00:00 19.3 18 Noroeste 58 Noroeste 0.4 1000.9 -- 86
2020-08-29 15:00:00 19.2 16 Noroeste 33 Noroeste 0.1 1000.6 -- 85
2020-08-29 14:00:00 17.8 12 Oeste 32 Oeste 0.3 1000.3 -- 92
2020-08-29 13:00:00 17.8 18 Noroeste 39 Noroeste 0.1 1000.4 -- 88
2020-08-29 12:00:00 17.2 16 Oeste 29 Oeste 1.5 999.9 -- 89
2020-08-29 11:00:00 17.5 12 Oeste 33 Oeste 0.5 1000.2 -- 89
2020-08-29 10:00:00 17.2 14 Oeste 36 Oeste 0.8 999.7 -- 87
2020-08-29 09:00:00 18.2 12 Oeste 30 Oeste 0.2 999.6 -- 84
2020-08-29 08:00:00 17.8 16 Oeste 32 Oeste 0 999.3 -- 90
2020-08-29 07:00:00 17.3 11 Oeste 38 Oeste 1.4 999.4 -- 93
2020-08-29 06:00:00 16 16 Oeste 39 Oeste 2.2 999.5 -- 95
2020-08-29 05:00:00 17.4 13 Oeste 34 Noroeste 0.8 999.8 -- 93
2020-08-29 04:00:00 18.5 20 Oeste 45 Oeste 0 1000.1 -- 84
2020-08-29 03:00:00 17.8 19 Oeste 42 Oeste 0 1000.4 -- 79
2020-08-29 02:00:00 17.6 16 Oeste 39 Noroeste 0 1000.8 -- 82
2020-08-29 01:00:00 18.6 13 Oeste 27 Oeste 0 1001.1 -- 82
2020-08-29 00:00:00 18.4 9 Oeste 40 Noroeste 0 1001.2 -- 77
2020-08-28 23:00:00 18.5 19 Noroeste 38 Noroeste 0 1001.6 -- 66
2020-08-28 22:00:00 20.2 20 Noroeste 37 Noroeste 0.1 1001.9 -- 71
2020-08-28 21:00:00 19.3 11 Oeste 26 Oeste 0 1001.8 -- 80
2020-08-28 20:00:00 19.1 10 Oeste 28 Oeste 0 1001.7 -- 85
2020-08-28 19:00:00 19.1 13 Oeste 50 Noroeste 2.5 1001.8 -- 91
2020-08-28 18:00:00 18.7 16 Noroeste 36 Noroeste 0.7 1002 -- 86
2020-08-28 17:00:00 20.5 18 Noroeste 36 Oeste 0 1002.2 -- 79
2020-08-28 16:00:00 19.2 15 Noroeste 44 Oeste 0 1002.6 -- 84
2020-08-28 15:00:00 18.3 8 Oeste 46 Noroeste 0.1 1003.3 -- 90
2020-08-28 14:00:00 18.7 13 Noroeste 35 Oeste 0 1003.7 -- 95
2020-08-28 13:00:00 18.4 16 Oeste 38 Noroeste 0 1003.9 -- 93
2020-08-28 12:00:00 19.2 11 Oeste 30 Oeste 0 1004 -- 88
2020-08-28 11:00:00 18.5 14 Noroeste 27 Noroeste 0 1004.2 -- 93
2020-08-28 10:00:00 17.6 20 Noroeste 37 Oeste 0.2 1004.4 -- 95
2020-08-28 09:00:00 19.6 16 Noroeste 35 Noroeste 0 1004.4 -- 90
2020-08-28 08:00:00 19.6 18 Noroeste 38 Noroeste 0 1004.1 -- 90
2020-08-28 07:00:00 20.1 20 Noroeste 42 Noroeste 0 1004.1 -- 94
2020-08-28 06:00:00 19.6 21 Noroeste 41 Noroeste 1.1 1004.1 -- 97
2020-08-28 05:00:00 20.4 19 Noroeste 35 Noroeste 1.1 1004 -- 97
2020-08-28 04:00:00 20.3 13 Noroeste 23 Noroeste 0 1004.4 -- 95
2020-08-28 03:00:00 20.9 3 Oeste 13 Oeste 0 1004.6 -- 92
2020-08-28 02:00:00 21 3 Oeste 8 Oeste 0 1005.3 -- 92
2020-08-28 01:00:00 21.2 5 Oeste 9 Sudoeste 0 1006.1 -- 93
2020-08-28 00:00:00 21.4 4 Noroeste 9 Noroeste 0 1006.9 -- 92
2020-08-27 23:00:00 21.4 0 Calma 6 Oeste 0 1007.1 -- 92
2020-08-27 22:00:00 21.6 4 Oeste 10 Noroeste 0 1007.8 -- 91
2020-08-27 21:00:00 21.5 7 Noroeste 14 Norte 0 1007.6 -- 92
2020-08-27 20:00:00 21.6 6 Noroeste 15 Noroeste 0 1007.9 -- 91
2020-08-27 19:00:00 22 6 Noroeste 18 Noroeste 0 1008.2 -- 91
2020-08-27 18:00:00 22.5 10 Noroeste 22 Noroeste 0 1008.4 -- 90
2020-08-27 17:00:00 22.8 12 Noroeste 29 Noroeste 0 1008.5 -- 90
2020-08-27 16:00:00 23 13 Noroeste 28 Noroeste 0 1009 -- 90
2020-08-27 15:00:00 23.7 11 Noroeste 21 Oeste 0 1009.5 -- 90
2020-08-27 14:00:00 23.6 9 Noroeste 22 Norte 0 1009.6 -- 90
2020-08-27 13:00:00 24.2 10 Noroeste 22 Noroeste 0 1009.4 -- 78
2020-08-27 12:00:00 25.4 6 Norte 12 Este 0 1009 -- 70
2020-08-27 11:00:00 24.3 9 Sudeste 17 Sur 0 1008.8 -- 76
2020-08-27 10:00:00 21.6 8 Sur 16 Sur 0 1009 -- 89
2020-08-27 09:00:00 19.5 8 Sur 14 Sur 0 1009.3 -- 96
2020-08-27 08:00:00 20.3 8 Sur 13 Sur 0 1009.3 -- 96
2020-08-27 07:00:00 19.1 6 Sur 11 Sur 0 1009.2 -- 95
2020-08-27 06:00:00 20.6 2 Sur 10 Sudeste 0 1009.2 -- 96
2020-08-27 05:00:00 20.7 7 Sur 10 Sur 0 1009.8 -- 95
2020-08-27 04:00:00 20.3 3 Sur 7 Sur 0 1009.9 -- 95
2020-08-27 03:00:00 20.7 4 Sur 6 Sur 0 1010.2 -- 95
2020-08-27 02:00:00 21.4 3 Sudeste 7 Sur 0 1010.6 -- 95
2020-08-27 01:00:00 21.6 4 Sur 7 Sur 0 1011.1 -- 95
2020-08-27 00:00:00 20.1 5 Sur 15 Sudeste 0 1011.4 -- 95
2020-08-26 23:00:00 20.7 0 Calma 7 Nordeste 0 1011.7 -- 95
2020-08-26 22:00:00 21.2 2 Nordeste 15 Nordeste 0 1011.4 -- 95
2020-08-26 21:00:00 21.8 8 Nordeste 15 Nordeste 0 1010.9 -- 93
2020-08-26 20:00:00 22.2 9 Nordeste 19 Nordeste 0 1010.4 -- 91
2020-08-26 19:00:00 23 13 Nordeste 26 Nordeste 0 1010.5 -- 90
2020-08-26 18:00:00 22.9 17 Nordeste 29 Nordeste 0 1010.7 -- 90
2020-08-26 17:00:00 23.5 19 Nordeste 27 Nordeste 0 1010.9 -- 88
2020-08-26 16:00:00 24 17 Nordeste 26 Nordeste 0 1011.2 -- 87
2020-08-26 15:00:00 24.2 16 Nordeste 26 Nordeste 0 1011.3 -- 86
2020-08-26 14:00:00 23.6 16 Nordeste 29 Nordeste 0 1011.3 -- 87
2020-08-26 13:00:00 24 10 Nordeste 17 Nordeste 0 1011.5 -- 87
2020-08-26 12:00:00 24.3 7 Nordeste 12 Nordeste 0 1011.5 -- 85
2020-08-26 11:00:00 22.9 6 Norte 10 Norte 0 1011.5 -- 83
2020-08-26 10:00:00 21.6 2 Sudeste 5 Este 0 1011 -- 88
2020-08-26 09:00:00 20.8 0 Calma 5 Sur 0 1010.9 -- 92
2020-08-26 08:00:00 20.3 3 Sudeste 5 Sudeste 0 1010.5 -- 92
2020-08-26 07:00:00 20.1 3 Sur 6 Sudeste 0 1010.1 -- 92
2020-08-26 06:00:00 20.3 3 Sudeste 8 Sur 0 1009.7 -- 91
2020-08-26 05:00:00 20.3 4 Sur 8 Sur 0 1009.6 -- 91
2020-08-26 04:00:00 20.5 3 Sur 8 Sur 0 1009.7 -- 91
2020-08-26 03:00:00 20.6 5 Sur 9 Sur 0 1009.9 -- 91
2020-08-26 02:00:00 20.7 5 Sur 10 Sur 0 1010.4 -- 91
2020-08-26 01:00:00 20.7 6 Sur 9 Sudeste 0 1010.5 -- 91
2020-08-26 00:00:00 20.9 3 Sudeste 5 Sudeste 0 1010.7 -- 90
2020-08-25 23:00:00 21.1 0 Calma 4 Sudeste 0 1010.6 -- 90
2020-08-25 22:00:00 21 0 Calma 4 Norte 0 1010.2 -- 89
2020-08-25 21:00:00 21.4 3 Noroeste 10 Noroeste 0 1009.3 -- 87
2020-08-25 20:00:00 22.4 6 Noroeste 12 Noroeste 0 1008.9 -- 81
2020-08-25 19:00:00 23.5 5 Norte 12 Norte 0 1008.7 -- 77
2020-08-25 18:00:00 24.1 6 Norte 14 Norte 0 1008.4 -- 76
2020-08-25 17:00:00 24 8 Norte 17 Norte 0 1007.9 -- 74
2020-08-25 16:00:00 23.7 8 Norte 19 Noroeste 0 1007.6 -- 75
2020-08-25 15:00:00 23.4 8 Noroeste 20 Noroeste 0 1007.6 -- 76
2020-08-25 14:00:00 23.3 9 Norte 24 Norte 0 1007.2 -- 74
2020-08-25 13:00:00 22.8 12 Noroeste 23 Oeste 0 1007 -- 72
2020-08-25 12:00:00 23.4 7 Noroeste 16 Noroeste 0 1006.5 -- 68
2020-08-25 11:00:00 24 5 Norte 11 Nordeste 0 1006 -- 59
2020-08-25 10:00:00 22.6 5 Sudeste 14 Sur 0 1005.2 -- 62
2020-08-25 09:00:00 20.2 7 Sur 12 Sur 0 1005 -- 71
2020-08-25 08:00:00 19.4 7 Sur 12 Sur 0 1004.1 -- 80
2020-08-25 07:00:00 19 7 Sur 12 Sur 0 1003.4 -- 84
2020-08-25 06:00:00 18.3 8 Sur 13 Sur 0 1003 -- 89
2020-08-25 05:00:00 18.6 9 Sur 15 Sur 0 1003 -- 91
2020-08-25 04:00:00 18.5 8 Sur 14 Sur 0 1003 -- 91
2020-08-25 03:00:00 18.5 5 Sur 13 Sur 0 1003.8 -- 91
2020-08-25 02:00:00 18.4 7 Sur 12 Sur 0 1003.9 -- 90
2020-08-25 01:00:00 18.7 5 Sur 8 Sudeste 0 1004.7 -- 87
2020-08-25 00:00:00 19.9 0 Calma 13 Sudeste 0 1005.7 -- 83
2020-08-24 23:00:00 20 7 Sudeste 15 Sudeste 0 1005.7 -- 80
2020-08-24 22:00:00 19.1 6 Sur 13 Sur 0 1005.9 -- 77
2020-08-24 21:00:00 20.4 8 Sudeste 18 Sudeste 0 1006.1 -- 70
2020-08-24 20:00:00 22.2 7 Este 19 Nordeste 0 1006.3 -- 69
2020-08-24 19:00:00 22.5 12 Nordeste 23 Nordeste 0 1006.8 -- 68
2020-08-24 18:00:00 23.2 13 Nordeste 25 Nordeste 0 1007.4 -- 66
2020-08-24 17:00:00 23.2 15 Nordeste 29 Nordeste 0 1008.1 -- 64
2020-08-24 16:00:00 22.7 15 Nordeste 28 Nordeste 0 1009.1 -- 68
2020-08-24 15:00:00 22.6 16 Nordeste 25 Nordeste 0 1010 -- 65
2020-08-24 14:00:00 22.7 13 Nordeste 21 Nordeste 0 1010.6 -- 67
2020-08-24 13:00:00 22.1 8 Nordeste 14 Nordeste 0 1011.3 -- 68
2020-08-24 12:00:00 21.1 7 Nordeste 11 Nordeste 0 1012 -- 71
2020-08-24 11:00:00 20 5 Norte 12 Sudeste 0 1012.4 -- 76
2020-08-24 10:00:00 19.3 6 Sur 26 Sudeste 0 1012.1 -- 86
2020-08-24 09:00:00 18.4 9 Sudeste 13 Sudeste 0 1011.6 -- 92
2020-08-24 08:00:00 17.4 8 Sur 12 Sur 0 1011.9 -- 95
2020-08-24 07:00:00 16.6 8 Sur 12 Sur 0 1011.8 -- 95
2020-08-24 06:00:00 17.4 7 Sur 11 Sur 0 1012 -- 95
2020-08-24 05:00:00 17.2 7 Sur 11 Sur 0 1012.1 -- 94
2020-08-24 04:00:00 17.5 6 Sur 9 Sur 0 1012.1 -- 93
2020-08-24 03:00:00 18.8 6 Sur 8 Sur 0 1012.5 -- 92
2020-08-24 02:00:00 18.7 5 Sur 8 Sudeste 0 1012.8 -- 91
2020-08-24 01:00:00 19.4 3 Sudeste 8 Sudeste 0 1013.6 -- 88
2020-08-24 00:00:00 19.9 4 Sudeste 6 Sudeste 0 1013.5 -- 86
2020-08-23 23:00:00 19.8 2 Sudeste 5 Este 0 1013.9 -- 84
2020-08-23 22:00:00 19.1 2 Este 8 Norte 0 1013.9 -- 83
2020-08-23 21:00:00 19.6 4 Nordeste 12 Nordeste 0 1013.2 -- 78
2020-08-23 20:00:00 20.3 8 Nordeste 14 Nordeste 0 1013.6 -- 74
2020-08-23 19:00:00 21.3 8 Nordeste 17 Nordeste 0 1013.5 -- 73
2020-08-23 18:00:00 22.2 10 Nordeste 17 Nordeste 0 1014 -- 71
2020-08-23 17:00:00 22.5 10 Nordeste 21 Nordeste 0 1014.4 -- 69
2020-08-23 16:00:00 22.7 11 Nordeste 20 Nordeste 0 1014.7 -- 70
2020-08-23 15:00:00 22.4 10 Norte 17 Nordeste 0 1015.3 -- 71
2020-08-23 14:00:00 22.2 8 Norte 14 Norte 0 1015.2 -- 75
2020-08-23 13:00:00 21.6 7 Norte 12 Nordeste 0 1015.9 -- 74
2020-08-23 12:00:00 21.2 6 Norte 9 Nordeste 0 1016.1 -- 71
2020-08-23 11:00:00 20.3 3 Norte 9 Sudeste 0 1015.8 -- 75
2020-08-23 10:00:00 18.8 6 Sur 12 Sur 0 1016 -- 92
2020-08-23 09:00:00 17.7 9 Sur 13 Sur 0 1015.5 -- 96
2020-08-23 08:00:00 17.4 7 Sur 12 Sudeste 0 1015.3 -- 96
2020-08-23 07:00:00 17.1 8 Sur 12 Sur 0 1014.8 -- 96
2020-08-23 06:00:00 17 7 Sur 10 Sur 0 1015.1 -- 96
2020-08-23 05:00:00 18.2 5 Sur 10 Sur 0 1015.6 -- 95
2020-08-23 04:00:00 18.1 2 Sudoeste 6 Sudoeste 0 1015.7 -- 93
2020-08-23 03:00:00 19.1 4 Oeste 8 Sudoeste 0 1015.7 -- 92
2020-08-23 02:00:00 19.8 5 Oeste 15 Noroeste 0 1015.9 -- 90
2020-08-23 01:00:00 21 3 Oeste 13 Noroeste 0 1015.9 -- 90
2020-08-23 00:00:00 20.6 0 Calma 10 Norte 0 1016.1 -- 92
2020-08-22 23:00:00 20.8 6 Noroeste 13 Noroeste 0 1016.1 -- 88
2020-08-22 22:00:00 20.7 7 Noroeste 19 Noroeste 0 1015.9 -- 90
2020-08-22 21:00:00 21.3 9 Noroeste 19 Noroeste 0.2 1015.6 -- 92
2020-08-22 20:00:00 20.1 8 Noroeste 17 Noroeste 0 1015.2 -- 87
2020-08-22 19:00:00 20.3 6 Noroeste 10 Norte 0 1015.1 -- 84
2020-08-22 18:00:00 20.9 6 Norte 13 Noroeste 0 1015.1 -- 81
2020-08-22 17:00:00 21.5 8 Norte 16 Norte 0 1015.2 -- 79
2020-08-22 16:00:00 21.4 8 Norte 16 Norte 0 1015.5 -- 82
2020-08-22 15:00:00 20.6 7 Norte 19 Norte 0 1015.7 -- 83
2020-08-22 14:00:00 20.7 8 Norte 23 Norte 0 1015.3 -- 85
2020-08-22 13:00:00 21.9 8 Norte 19 Norte 0 1015.5 -- 82
2020-08-22 12:00:00 20.9 9 Noroeste 18 Norte 0 1015.2 -- 89
2020-08-22 11:00:00 19.6 6 Oeste 10 Noroeste 0 1014.6 -- 90
2020-08-22 10:00:00 21 4 Sur 12 Sudeste 0 1014.1 -- 95
2020-08-22 09:00:00 18.1 5 Sur 13 Sur 0 1013.9 -- 95
2020-08-22 08:00:00 18.5 8 Sur 12 Sur 0 1013.2 -- 96
2020-08-22 07:00:00 17.7 9 Sur 16 Sur 0 1012.7 -- 96
2020-08-22 06:00:00 18.5 7 Sur 12 Sur 0 1012.3 -- 95
2020-08-22 05:00:00 17.8 7 Sur 10 Sur 0 1011.9 -- 95
2020-08-22 04:00:00 18.8 6 Sur 9 Sur 0 1011.8 -- 95
2020-08-22 03:00:00 19 4 Sur 8 Sur 0 1011.3 -- 93
2020-08-22 02:00:00 19.9 5 Sur 8 Sur 0 1011.6 -- 93
2020-08-22 01:00:00 19 3 Sur 6 Sur 0 1011.5 1.3 91
2020-08-22 00:00:00 20 4 Sur 7 Sur 0 1011.1 -- 89
2020-08-21 23:00:00 20 2 Sudeste 6 Sudeste 0 1011.1 -- 88
2020-08-21 22:00:00 20.4 4 Este 8 Este 0 1010.2 -- 86
2020-08-21 21:00:00 20.3 3 Este 13 Este 0 1009.2 -- 85
2020-08-21 20:00:00 20.8 10 Este 20 Nordeste 0 1008.5 -- 84
2020-08-21 19:00:00 21 9 Nordeste 21 Este 0 1008 -- 82
2020-08-21 18:00:00 21 12 Nordeste 23 Norte 0 1007.6 -- 83
2020-08-21 17:00:00 21.2 11 Nordeste 23 Nordeste 0 1007.1 -- 77
2020-08-21 16:00:00 21.3 11 Este 21 Este 0 1007.1 -- 79
2020-08-21 15:00:00 21.4 10 Nordeste 21 Nordeste 0 1006.7 -- 79
2020-08-21 14:00:00 22 12 Nordeste 23 Nordeste 0 1006.1 -- 75
2020-08-21 13:00:00 22.5 14 Nordeste 24 Nordeste 0 1005.5 -- 84
2020-08-21 12:00:00 21.8 10 Nordeste 18 Este 0 1005.2 -- 87
2020-08-21 11:00:00 21.6 9 Nordeste 18 Nordeste 0 1004.6 -- 91
2020-08-21 10:00:00 21.5 5 Nordeste 10 Nordeste 0 1004 -- 96
2020-08-21 09:00:00 21.1 4 Este 10 Este 0 1003.4 -- 96
2020-08-21 08:00:00 21.2 3 Noroeste 13 Noroeste 0 1002.6 -- 96
2020-08-21 07:00:00 21.4 9 Noroeste 17 Noroeste 0 1001.8 -- 96
2020-08-21 06:00:00 21.5 12 Noroeste 18 Noroeste 0 1001.2 -- 96
2020-08-21 05:00:00 21.4 11 Noroeste 19 Noroeste 0 1000.8 -- 96
2020-08-21 04:00:00 21.5 11 Noroeste 22 Noroeste 0 1000.4 -- 97
2020-08-21 03:00:00 21.7 8 Oeste 17 Sudeste 0.2 999.6 -- 95
2020-08-21 02:00:00 21.3 9 Sur 18 Sudeste 0.5 999.1 -- 90
2020-08-21 01:00:00 21.7 7 Sur 14 Sudeste 0 998.6 -- 91
2020-08-21 00:00:00 21.4 6 Sur 10 Sudeste 0 998.5 -- 95